Time;durP1;ratioP1;P1;durP2;ratioP2;P2;SDS_P1;SDS_P2;PMS_P1;PMS_P2;Temp;Humidity;BMP_temperature;BMP_pressure;BME280_temperature;BME280_humidity;BME280_pressure;Samples;Min_cycle;Max_cycle;Signal;HPM_P1;HPM_P2
2022/06/28 00:05:51;;;;;;;5.13;3.30;;;25.90;90.00;;;;;;4943849;29;20343;-83
2022/06/28 00:08:46;;;;;;;6.55;3.55;;;25.80;90.20;;;;;;4943873;28;20024;-81
2022/06/28 00:11:16;;;;;;;7.43;3.28;;;25.80;90.20;;;;;;4964529;28;20019;-82
2022/06/28 00:13:55;;;;;;;4.72;3.13;;;25.80;90.40;;;;;;4947004;28;20011;-81
2022/06/28 00:16:24;;;;;;;6.15;3.50;;;25.70;90.70;;;;;;4944957;29;20039;-81
2022/06/28 00:18:53;;;;;;;6.63;3.65;;;25.60;90.90;;;;;;4939358;29;20474;-80
2022/06/28 00:21:21;;;;;;;10.32;3.47;;;25.60;91.00;;;;;;4927106;29;20068;-81
2022/06/28 00:23:56;;;;;;;9.45;3.97;;;25.60;91.10;;;;;;4951466;28;20028;-81
2022/06/28 00:26:31;;;;;;;7.63;3.30;;;25.50;91.30;;;;;;4950780;28;20485;-81
2022/06/28 00:28:57;;;;;;;10.18;3.10;;;25.40;91.70;;;;;;4945400;28;20086;-81
2022/06/28 00:31:30;;;;;;;6.97;3.78;;;25.30;91.90;;;;;;4952976;29;20457;-81
2022/06/28 00:33:58;;;;;;;3.65;3.08;;;25.20;92.20;;;;;;4958832;28;20024;-80
2022/06/28 00:36:24;;;;;;;5.68;3.15;;;25.00;92.50;;;;;;4940766;29;20119;-81
2022/06/28 00:38:50;;;;;;;5.90;2.88;;;25.00;92.70;;;;;;4937072;29;20059;-81
2022/06/28 00:41:19;;;;;;;6.38;2.97;;;24.90;93.00;;;;;;4931407;29;20032;-80
2022/06/28 00:43:48;;;;;;;3.75;3.05;;;24.90;93.20;;;;;;4944489;29;20055;-80
2022/06/28 00:46:19;;;;;;;5.55;2.85;;;24.80;93.50;;;;;;4957726;28;20020;-81
2022/06/28 00:48:45;;;;;;;6.18;3.47;;;24.70;94.20;;;;;;4939118;29;20067;-81
2022/06/28 00:51:12;;;;;;;4.00;3.05;;;24.60;95.20;;;;;;4943900;28;20498;-81
2022/06/28 00:56:50;;;;;;;4.13;2.70;;;24.40;95.90;;;;;;5452832;23;20026;-79
2022/06/28 00:59:17;;;;;;;4.65;2.70;;;24.20;96.70;;;;;;5068689;23;20053;-80
2022/06/28 01:04:20;;;;;;;2.80;2.60;;;24.00;97.10;;;;;;4966574;23;20043;-81
2022/06/28 01:06:52;;;;;;;4.25;2.80;;;24.00;97.00;;;;;;4958783;28;20031;-80
2022/06/28 01:09:33;;;;;;;3.88;2.55;;;23.90;96.90;;;;;;4955806;28;20023;-81
2022/06/28 01:12:01;;;;;;;3.78;2.40;;;23.80;97.20;;;;;;4960427;28;20031;-79
2022/06/28 01:14:28;;;;;;;6.40;2.63;;;23.80;97.60;;;;;;4966568;28;20020;-80
2022/06/28 01:17:00;;;;;;;6.07;2.42;;;23.80;97.70;;;;;;4945625;28;20023;-81
2022/06/28 01:19:31;;;;;;;2.88;2.40;;;23.80;97.70;;;;;;4964117;28;20085;-80
2022/06/28 01:21:59;;;;;;;4.50;2.40;;;23.70;97.70;;;;;;4962682;28;20035;-79
2022/06/28 01:24:34;;;;;;;3.50;2.55;;;23.70;97.80;;;;;;4943116;29;20027;-81
2022/06/28 01:27:04;;;;;;;4.60;2.80;;;23.70;98.30;;;;;;4949987;28;20051;-82
2022/06/28 01:29:31;;;;;;;7.43;3.40;;;23.60;99.10;;;;;;4955841;28;20103;-81
2022/06/28 01:31:58;;;;;;;6.43;3.85;;;23.50;99.90;;;;;;4943748;29;20015;-78
2022/06/28 01:34:27;;;;;;;5.97;3.83;;;23.40;99.90;;;;;;4961842;28;20023;-80
2022/06/28 01:36:52;;;;;;;8.13;3.20;;;23.20;99.90;;;;;;4954674;28;20485;-76
2022/06/28 01:39:33;;;;;;;3.63;3.10;;;23.10;99.90;;;;;;4940799;28;20019;-79
2022/06/28 01:42:19;;;;;;;5.30;3.13;;;22.90;99.90;;;;;;4938975;29;20030;-80
2022/06/28 01:44:50;;;;;;;5.35;3.47;;;22.80;99.90;;;;;;4962166;28;20032;-78
2022/06/28 01:47:18;;;;;;;6.18;3.53;;;22.80;99.90;;;;;;4938496;29;20019;-79
2022/06/28 01:49:50;;;;;;;4.35;3.10;;;22.70;99.90;;;;;;4937522;29;20465;-79
2022/06/28 01:52:21;;;;;;;5.63;3.05;;;22.70;99.90;;;;;;4936671;29;20052;-80
2022/06/28 01:54:52;;;;;;;5.95;3.42;;;22.70;99.90;;;;;;4947522;29;20623;-79
2022/06/28 01:57:18;;;;;;;6.30;3.50;;;22.70;99.90;;;;;;4938658;29;20030;-79
2022/06/28 01:59:44;;;;;;;4.82;3.30;;;22.80;99.90;;;;;;4944012;28;20023;-80
2022/06/28 02:02:09;;;;;;;4.30;3.10;;;22.80;99.90;;;;;;4958459;28;20063;-79
2022/06/28 02:04:35;;;;;;;3.45;2.90;;;22.80;99.90;;;;;;4943456;28;20036;-80
2022/06/28 02:07:03;;;;;;;4.15;3.00;;;22.90;99.90;;;;;;4941188;28;20593;-79
2022/06/28 02:09:29;;;;;;;2.80;2.60;;;22.80;99.90;;;;;;4944418;29;20090;-80
2022/06/28 02:12:04;;;;;;;3.45;2.42;;;22.80;99.90;;;;;;4953814;28;20620;-79
2022/06/28 02:14:32;;;;;;;2.97;2.40;;;22.80;99.90;;;;;;4937996;28;20065;-79
2022/06/28 02:17:01;;;;;;;5.30;2.35;;;22.80;99.90;;;;;;4953758;28;20024;-78
2022/06/28 02:19:27;;;;;;;3.38;2.63;;;22.80;99.90;;;;;;4952119;28;20169;-79
2022/06/28 02:21:53;;;;;;;2.30;2.10;;;22.80;99.90;;;;;;4950314;28;20563;-80
2022/06/28 02:24:19;;;;;;;2.38;2.13;;;22.70;99.90;;;;;;4949355;28;20027;-79
2022/06/28 02:26:48;;;;;;;2.60;2.40;;;22.60;99.90;;;;;;4949565;28;20075;-79
2022/06/28 02:29:13;;;;;;;3.35;2.22;;;22.60;99.90;;;;;;4971299;28;20011;-82
2022/06/28 02:31:39;;;;;;;4.82;2.28;;;22.60;99.90;;;;;;4938781;28;20358;-80
2022/06/28 02:40:21;;;;;;;2.47;2.00;;;22.60;99.90;;;;;;4955316;28;20039;-80
2022/06/28 02:40:24;;;;;;;3.05;2.20;;;22.60;99.90;;;;;;4948131;29;20047;-80
2022/06/28 02:42:58;;;;;;;3.05;2.42;;;22.60;99.90;;;;;;4951086;28;20023;-79
2022/06/28 02:45:35;;;;;;;3.08;2.35;;;22.60;99.90;;;;;;4951043;28;20086;-78
2022/06/28 02:48:04;;;;;;;8.13;3.10;;;22.50;99.90;;;;;;4945338;28;20445;-79
2022/06/28 02:50:46;;;;;;;6.57;3.30;;;22.50;99.90;;;;;;4936672;29;20157;-79
2022/06/28 02:53:14;;;;;;;3.35;2.42;;;22.40;99.90;;;;;;4936922;29;20109;-79
2022/06/28 02:55:43;;;;;;;4.03;3.10;;;22.20;99.90;;;;;;4955977;28;20114;-81
2022/06/28 02:58:23;;;;;;;4.38;2.78;;;22.10;99.90;;;;;;4955971;28;20113;-80
2022/06/28 03:00:55;;;;;;;3.90;2.80;;;22.10;99.90;;;;;;4950309;29;20485;-79
2022/06/28 03:03:23;;;;;;;3.65;2.47;;;21.90;99.90;;;;;;4958241;28;20028;-78
2022/06/28 03:05:49;;;;;;;3.30;2.80;;;21.60;99.90;;;;;;4935548;29;20110;-79
2022/06/28 03:08:22;;;;;;;5.10;3.45;;;21.30;99.90;;;;;;4936469;28;20030;-78
2022/06/28 03:10:51;;;;;;;5.15;3.90;;;21.10;99.90;;;;;;4928957;29;20019;-78
2022/06/28 03:13:18;;;;;;;5.15;4.00;;;20.90;99.90;;;;;;4945114;28;20062;-78
2022/06/28 03:15:45;;;;;;;3.97;3.65;;;20.90;99.90;;;;;;4944446;28;20016;-78
2022/06/28 03:18:14;;;;;;;5.47;4.18;;;20.90;99.90;;;;;;4951168;28;20115;-78
2022/06/28 03:20:53;;;;;;;6.53;3.72;;;20.80;99.90;;;;;;4950699;28;20027;-80
2022/06/28 03:23:24;;;;;;;4.85;3.28;;;20.80;99.90;;;;;;4949998;29;20020;-80
2022/06/28 03:25:49;;;;;;;3.80;3.45;;;20.90;99.90;;;;;;4947915;29;20472;-80
2022/06/28 03:28:15;;;;;;;4.22;3.30;;;21.10;99.90;;;;;;4947892;28;20106;-80
2022/06/28 03:30:41;;;;;;;3.25;3.03;;;21.30;99.90;;;;;;4940698;29;20030;-79
2022/06/28 03:33:10;;;;;;;4.10;3.00;;;21.40;99.90;;;;;;4948949;28;20058;-78
2022/06/28 03:35:38;;;;;;;6.63;2.95;;;21.50;99.90;;;;;;4950719;28;20055;-79
2022/06/28 03:38:17;;;;;;;2.50;2.30;;;21.60;99.90;;;;;;4943838;28;20479;-79
2022/06/28 03:40:54;;;;;;;2.78;2.50;;;21.70;99.90;;;;;;4927037;29;20035;-78
2022/06/28 03:43:20;;;;;;;2.63;2.30;;;21.80;99.90;;;;;;4936907;28;20674;-79
2022/06/28 03:45:50;;;;;;;4.30;2.40;;;21.80;99.90;;;;;;4946534;28;20062;-79
2022/06/28 03:48:18;;;;;;;3.05;2.20;;;21.80;99.90;;;;;;4935205;29;20077;-79
2022/06/28 03:50:50;;;;;;;3.22;2.25;;;21.80;99.90;;;;;;4944435;28;20020;-80
2022/06/28 03:53:17;;;;;;;2.15;1.98;;;21.80;99.90;;;;;;4951817;28;20039;-79
2022/06/28 03:55:46;;;;;;;3.80;2.30;;;21.90;99.90;;;;;;4927130;29;20582;-79
2022/06/28 03:58:34;;;;;;;3.50;2.20;;;22.00;99.90;;;;;;4949603;29;20026;-81
2022/06/28 04:01:06;;;;;;;3.20;2.40;;;22.00;99.90;;;;;;4964297;28;20039;-80
2022/06/28 04:03:34;;;;;;;2.65;2.45;;;22.10;99.90;;;;;;4943731;29;20038;-79
2022/06/28 04:06:01;;;;;;;4.75;2.22;;;22.20;99.90;;;;;;4942731;28;20485;-79
2022/06/28 04:08:30;;;;;;;2.35;2.08;;;22.30;99.90;;;;;;4938603;29;20101;-79
2022/06/28 04:11:16;;;;;;;3.08;2.08;;;22.30;99.90;;;;;;4937624;29;20106;-79
2022/06/28 04:13:51;;;;;;;2.35;2.13;;;22.30;99.90;;;;;;4969147;28;20024;-78
2022/06/28 04:16:17;;;;;;;3.55;2.13;;;22.30;99.90;;;;;;4938232;28;20015;-78
2022/06/28 04:18:47;;;;;;;1.70;1.60;;;22.40;99.90;;;;;;4941158;28;20086;-79
2022/06/28 04:21:15;;;;;;;5.35;1.67;;;22.30;99.90;;;;;;4952619;28;20106;-80
2022/06/28 04:23:42;;;;;;;1.98;1.85;;;22.30;99.90;;;;;;4949275;28;20026;-79
2022/06/28 04:26:16;;;;;;;2.03;1.58;;;22.20;99.90;;;;;;4934753;29;20071;-77
2022/06/28 04:28:42;;;;;;;1.88;1.77;;;22.10;99.90;;;;;;4951147;28;20449;-79
2022/06/28 04:31:08;;;;;;;2.33;1.83;;;22.00;99.90;;;;;;4945499;28;20024;-78
2022/06/28 04:33:37;;;;;;;1.95;1.77;;;21.90;99.90;;;;;;4939295;28;20038;-78
2022/06/28 04:36:03;;;;;;;5.28;2.25;;;21.90;99.90;;;;;;4957210;28;20027;-78
2022/06/28 04:38:32;;;;;;;2.03;1.63;;;22.00;99.90;;;;;;4942421;29;20026;-80
2022/06/28 05:25:00;;;;;;;2.42;1.70;;;22.90;99.90;;;;;;5292567;23;20051;-72
2022/06/28 05:27:25;;;;;;;1.60;1.50;;;23.10;99.90;;;;;;4913015;29;20028;-71
2022/06/28 05:29:51;;;;;;;2.67;1.63;;;23.30;99.90;;;;;;4906333;29;20681;-70
2022/06/28 05:32:17;;;;;;;2.72;1.73;;;23.30;99.90;;;;;;4924536;29;20024;-74
2022/06/28 05:34:44;;;;;;;2.00;1.90;;;23.50;99.90;;;;;;4906596;29;20020;-75
2022/06/28 05:37:11;;;;;;;2.63;1.90;;;23.70;99.90;;;;;;4928056;29;20011;-74
2022/06/28 05:39:43;;;;;;;1.58;1.48;;;23.90;99.90;;;;;;4910026;29;20544;-75
2022/06/28 05:42:08;;;;;;;1.70;1.60;;;24.20;99.90;;;;;;4908283;29;20481;-75
2022/06/28 05:44:37;;;;;;;2.35;1.67;;;24.60;99.90;;;;;;4928021;28;20016;-75
2022/06/28 05:47:03;;;;;;;2.85;1.65;;;24.80;99.90;;;;;;4914500;29;20028;-74
2022/06/28 05:49:30;;;;;;;2.00;1.80;;;25.20;99.90;;;;;;4910826;29;20075;-75
2022/06/28 05:51:56;;;;;;;1.80;1.65;;;25.60;99.90;;;;;;4904523;29;20040;-75
2022/06/28 05:54:22;;;;;;;;;;;25.90;99.70;;;;;;4910566;29;20039;-74
2022/06/28 05:56:49;;;;;;;1.70;1.60;;;26.20;98.80;;;;;;4923381;28;19957;-75
2022/06/28 05:59:16;;;;;;;2.80;1.98;;;26.90;97.80;;;;;;4927554;29;20429;-75
2022/06/28 06:01:44;;;;;;;2.90;1.63;;;27.50;96.40;;;;;;4909939;29;20489;-75
2022/06/28 06:04:10;;;;;;;1.38;1.25;;;27.60;95.50;;;;;;4910524;29;20023;-74
2022/06/28 06:06:36;;;;;;;2.47;1.40;;;28.10;94.70;;;;;;4904706;29;20031;-75
2022/06/28 06:09:02;;;;;;;2.05;1.40;;;28.50;93.70;;;;;;4907368;29;20047;-75
2022/06/28 06:11:32;;;;;;;1.98;1.70;;;28.60;93.30;;;;;;4926862;29;20039;-75
2022/06/28 06:14:00;;;;;;;1.50;1.40;;;28.40;93.10;;;;;;4907227;29;20111;-76
2022/06/28 06:16:27;;;;;;;2.63;1.20;;;28.40;93.00;;;;;;4910704;29;20059;-75
2022/06/28 06:18:55;;;;;;;1.75;1.65;;;28.40;92.60;;;;;;4908084;29;20976;-75
2022/06/28 06:21:30;;;;;;;1.63;1.15;;;28.30;92.70;;;;;;4909179;29;20063;-76
2022/06/28 06:24:02;;;;;;;2.08;1.52;;;28.20;92.50;;;;;;4907002;29;20474;-75
2022/06/28 06:26:33;;;;;;;2.20;1.55;;;28.00;92.40;;;;;;4908053;29;20084;-75
2022/06/28 06:28:59;;;;;;;2.20;1.20;;;28.00;92.00;;;;;;4908247;29;20114;-74
2022/06/28 06:31:29;;;;;;;1.70;1.60;;;27.90;92.60;;;;;;4908709;29;20056;-75
2022/06/28 06:33:57;;;;;;;2.85;1.40;;;28.20;91.90;;;;;;4907728;29;20020;-75
2022/06/28 06:36:27;;;;;;;2.97;1.52;;;28.90;91.20;;;;;;4912008;29;20035;-76
2022/06/28 06:38:54;;;;;;;2.33;1.30;;;29.50;90.00;;;;;;4905155;29;20548;-75
2022/06/28 06:41:20;;;;;;;3.08;1.30;;;30.10;88.40;;;;;;4907475;29;20091;-76
2022/06/28 06:43:47;;;;;;;1.55;1.27;;;31.00;85.40;;;;;;4906910;29;20027;-76
2022/06/28 06:46:19;;;;;;;1.67;1.13;;;31.70;82.80;;;;;;4913827;29;20098;-75
2022/06/28 06:48:44;;;;;;;3.03;1.30;;;31.70;81.00;;;;;;4902177;29;20043;-76
2022/06/28 06:51:10;;;;;;;2.15;1.52;;;31.70;80.50;;;;;;4907338;29;20019;-73
2022/06/28 06:53:36;;;;;;;2.65;1.40;;;32.20;79.10;;;;;;4905569;29;20023;-76
2022/06/28 06:56:02;;;;;;;1.95;1.13;;;32.90;77.30;;;;;;4912389;29;20028;-75
2022/06/28 06:58:30;;;;;;;1.38;1.27;;;33.20;75.20;;;;;;4912145;29;20455;-75
2022/06/28 07:00:57;;;;;;;4.00;1.45;;;33.20;74.50;;;;;;4907508;29;20052;-75
2022/06/28 07:03:24;;;;;;;1.58;1.48;;;33.30;73.90;;;;;;4903751;29;20028;-74
2022/06/28 07:05:49;;;;;;;2.78;1.38;;;33.30;73.30;;;;;;4905330;28;20054;-75
2022/06/28 07:08:18;;;;;;;3.92;1.77;;;33.30;73.30;;;;;;4914488;29;20012;-75
2022/06/28 07:10:54;;;;;;;1.67;1.48;;;33.30;72.70;;;;;;4906189;29;20651;-75
2022/06/28 07:13:20;;;;;;;2.35;1.90;;;33.50;71.90;;;;;;4905938;29;20535;-75
2022/06/28 07:15:50;;;;;;;5.80;1.45;;;33.60;71.80;;;;;;4905639;29;20584;-75
2022/06/28 07:18:16;;;;;;;2.20;1.67;;;34.10;70.00;;;;;;4903729;29;20027;-75
2022/06/28 07:20:42;;;;;;;3.88;1.65;;;33.90;70.20;;;;;;4904369;29;20046;-75
2022/06/28 07:23:11;;;;;;;2.45;1.70;;;34.20;69.80;;;;;;4907786;29;20024;-75
2022/06/28 07:25:36;;;;;;;3.40;1.90;;;34.50;69.20;;;;;;4908602;29;20513;-75
2022/06/28 07:28:08;;;;;;;2.70;1.95;;;34.70;68.40;;;;;;4908527;29;20028;-75
2022/06/28 07:30:35;;;;;;;3.78;1.90;;;35.10;67.70;;;;;;4903988;29;20017;-76
2022/06/28 07:33:06;;;;;;;5.32;2.25;;;35.50;66.00;;;;;;4906089;29;20028;-75
2022/06/28 07:35:32;;;;;;;3.90;1.73;;;35.90;65.40;;;;;;4912909;29;20095;-76
2022/06/28 07:38:02;;;;;;;3.05;1.63;;;35.60;65.20;;;;;;4903466;29;20036;-75
2022/06/28 07:40:30;;;;;;;4.70;2.13;;;35.90;64.60;;;;;;4906374;29;20036;-75
2022/06/28 07:42:57;;;;;;;3.50;1.60;;;35.80;64.50;;;;;;4903235;29;20027;-76
2022/06/28 07:45:29;;;;;;;3.65;1.50;;;35.90;64.10;;;;;;4910245;29;20064;-75
2022/06/28 07:47:58;;;;;;;3.58;1.67;;;36.30;62.70;;;;;;4907156;29;20043;-76
2022/06/28 07:53:18;;;;;;;2.75;1.55;;;36.50;62.40;;;;;;4905819;29;20510;-76
2022/06/28 07:55:51;;;;;;;1.90;1.50;;;37.00;61.40;;;;;;4904077;29;20386;-75
2022/06/28 07:58:17;;;;;;;2.85;1.65;;;37.00;60.90;;;;;;4909429;29;20159;-75
2022/06/28 08:00:43;;;;;;;3.45;1.58;;;37.30;60.30;;;;;;4901776;29;20127;-76
2022/06/28 08:03:11;;;;;;;2.28;1.30;;;37.60;60.40;;;;;;4907456;29;20480;-76
2022/06/28 08:05:38;;;;;;;3.65;1.30;;;37.70;59.40;;;;;;4906668;29;20103;-75
2022/06/28 08:08:04;;;;;;;3.05;1.73;;;38.10;58.50;;;;;;4904526;29;20027;-75
2022/06/28 08:10:31;;;;;;;2.60;1.58;;;38.20;58.30;;;;;;4909578;29;20019;-75
2022/06/28 08:13:03;;;;;;;2.40;1.58;;;38.10;58.10;;;;;;4906786;29;20051;-75
2022/06/28 08:15:36;;;;;;;2.50;1.38;;;38.50;57.40;;;;;;4910886;29;20028;-75
2022/06/28 08:18:03;;;;;;;2.00;1.30;;;38.70;57.00;;;;;;4905716;29;20351;-74
2022/06/28 08:20:31;;;;;;;2.55;1.35;;;38.40;56.90;;;;;;4907388;29;20125;-76
2022/06/28 08:22:57;;;;;;;1.67;1.45;;;38.70;56.50;;;;;;4899561;29;20039;-75
2022/06/28 08:25:24;;;;;;;2.55;1.40;;;38.70;56.20;;;;;;4907853;29;20036;-75
2022/06/28 08:27:51;;;;;;;2.40;1.50;;;38.30;56.90;;;;;;4901942;29;20390;-75
2022/06/28 08:30:18;;;;;;;1.60;1.50;;;38.70;56.30;;;;;;4914488;29;20105;-75
2022/06/28 08:32:45;;;;;;;2.40;1.42;;;38.70;55.90;;;;;;4902080;29;20028;-76
2022/06/28 08:35:13;;;;;;;3.63;1.40;;;38.20;56.80;;;;;;4909491;29;20020;-75
2022/06/28 08:37:41;;;;;;;3.13;1.38;;;38.90;56.00;;;;;;4904591;29;20019;-75
2022/06/28 08:40:08;;;;;;;1.50;1.40;;;38.20;56.80;;;;;;4907392;29;20548;-75
2022/06/28 08:42:48;;;;;;;2.25;1.70;;;38.70;56.10;;;;;;4905353;29;20026;-75
2022/06/28 08:45:16;;;;;;;1.73;1.55;;;39.10;54.90;;;;;;4901522;29;20028;-76
2022/06/28 08:47:43;;;;;;;2.05;1.58;;;39.60;54.30;;;;;;4909205;29;20028;-75
2022/06/28 08:50:15;;;;;;;1.73;1.40;;;39.70;54.20;;;;;;4913815;29;20018;-75
2022/06/28 08:52:43;;;;;;;1.75;1.35;;;39.20;54.10;;;;;;4909255;29;20030;-76
2022/06/28 08:55:11;;;;;;;1.50;1.40;;;39.00;55.20;;;;;;4910496;29;20019;-75
2022/06/28 08:57:37;;;;;;;1.90;1.38;;;39.40;55.00;;;;;;4908635;29;20020;-76
2022/06/28 09:00:08;;;;;;;1.73;1.60;;;40.40;53.40;;;;;;4901915;29;20075;-76
2022/06/28 09:02:35;;;;;;;2.40;1.70;;;40.80;52.90;;;;;;4914757;29;20032;-76
2022/06/28 09:05:08;;;;;;;1.70;1.60;;;40.90;52.30;;;;;;4906004;29;20030;-75
2022/06/28 09:07:35;;;;;;;5.13;4.00;;;41.10;52.50;;;;;;4904673;29;20035;-75
2022/06/28 09:10:00;;;;;;;4.60;2.05;;;41.30;52.30;;;;;;4907640;29;20031;-76
2022/06/28 09:12:27;;;;;;;2.25;1.85;;;40.70;51.70;;;;;;4899534;29;20044;-75
2022/06/28 09:14:54;;;;;;;2.10;1.42;;;40.60;52.60;;;;;;4913414;29;20509;-76
2022/06/28 09:17:29;;;;;;;2.38;1.95;;;40.90;52.40;;;;;;4906957;29;20080;-76
2022/06/28 09:20:05;;;;;;;1.98;1.48;;;42.00;51.00;;;;;;4910270;29;20032;-76
2022/06/28 09:22:39;;;;;;;2.95;1.80;;;42.20;49.70;;;;;;4908740;29;20047;-76
2022/06/28 09:25:13;;;;;;;3.63;2.10;;;42.30;50.50;;;;;;4904987;29;20359;-76
2022/06/28 09:27:42;;;;;;;2.50;1.70;;;42.20;50.30;;;;;;4905919;29;20114;-75
2022/06/28 09:30:10;;;;;;;1.80;1.70;;;41.50;50.60;;;;;;4906604;29;20079;-76
2022/06/28 09:32:37;;;;;;;1.88;1.77;;;41.30;50.50;;;;;;4903025;29;20098;-75
2022/06/28 09:35:11;;;;;;;2.55;1.73;;;42.30;50.30;;;;;;4906730;29;20024;-75
2022/06/28 09:37:48;;;;;;;2.25;1.50;;;42.60;49.30;;;;;;4903057;29;20432;-75
2022/06/28 09:40:22;;;;;;;3.30;1.65;;;42.00;49.10;;;;;;4906513;29;20377;-76
2022/06/28 09:43:09;;;;;;;2.20;2.00;;;39.90;50.80;;;;;;4904674;29;20032;-76
2022/06/28 09:45:46;;;;;;;2.65;1.65;;;39.80;51.90;;;;;;4903402;29;20386;-76
2022/06/28 09:48:20;;;;;;;2.58;1.80;;;38.60;52.50;;;;;;4904901;29;20683;-75
2022/06/28 09:50:46;;;;;;;1.80;1.70;;;37.30;54.10;;;;;;4921616;29;20160;-75
2022/06/28 09:53:16;;;;;;;1.58;1.48;;;38.70;53.90;;;;;;4910154;29;20019;-76
2022/06/28 09:55:43;;;;;;;3.15;1.70;;;39.90;51.70;;;;;;4930247;29;20115;-75
2022/06/28 09:58:14;;;;;;;2.45;1.50;;;40.30;50.40;;;;;;4908061;29;20027;-76
2022/06/28 10:00:40;;;;;;;3.50;1.80;;;41.40;51.00;;;;;;4905173;29;20028;-75
2022/06/28 10:03:06;;;;;;;2.40;1.90;;;42.20;49.60;;;;;;4914852;29;20034;-75
2022/06/28 10:05:32;;;;;;;2.42;1.60;;;39.50;49.80;;;;;;4909273;29;20032;-76
2022/06/28 10:08:03;;;;;;;1.70;1.60;;;40.00;50.40;;;;;;4914458;29;20036;-76
2022/06/28 10:10:30;;;;;;;1.77;1.58;;;40.30;51.00;;;;;;4907710;29;20024;-76
2022/06/28 10:15:54;;;;;;;1.60;1.50;;;39.10;52.10;;;;;;4907156;29;20112;-75
2022/06/28 10:18:23;;;;;;;1.60;1.45;;;40.10;50.30;;;;;;4906440;29;20027;-75
2022/06/28 10:20:49;;;;;;;1.67;1.50;;;39.70;51.00;;;;;;4907174;29;20032;-76
2022/06/28 10:23:42;;;;;;;2.63;1.60;;;40.60;50.70;;;;;;4908625;29;20026;-75
2022/06/28 10:26:19;;;;;;;2.67;1.65;;;41.80;50.30;;;;;;4909424;29;20052;-75
2022/06/28 10:28:59;;;;;;;2.53;1.65;;;40.90;49.50;;;;;;4911538;29;20039;-76
2022/06/28 10:31:25;;;;;;;2.20;1.48;;;38.50;50.90;;;;;;4903961;29;20071;-76
2022/06/28 10:34:00;;;;;;;2.90;1.58;;;39.20;52.40;;;;;;4911531;29;20044;-75
2022/06/28 10:36:40;;;;;;;2.40;1.85;;;39.40;51.00;;;;;;4899819;29;20129;-76
2022/06/28 10:39:10;;;;;;;3.30;2.00;;;40.30;51.20;;;;;;4908379;29;20028;-75
2022/06/28 10:41:40;;;;;;;2.00;1.58;;;41.00;51.70;;;;;;4909210;29;20042;-76
2022/06/28 10:44:26;;;;;;;2.78;1.80;;;42.30;49.10;;;;;;4904281;29;20016;-75
2022/06/28 10:47:11;;;;;;;1.85;1.58;;;42.30;48.40;;;;;;4925703;29;20032;-76
2022/06/28 10:49:48;;;;;;;2.88;2.03;;;43.10;47.90;;;;;;4901165;29;20020;-75
2022/06/28 10:52:40;;;;;;;2.20;1.50;;;43.70;46.50;;;;;;4907258;29;20023;-75
2022/06/28 10:55:11;;;;;;;2.95;1.77;;;42.90;47.00;;;;;;4907390;29;20047;-76
2022/06/28 10:57:43;;;;;;;1.73;1.52;;;42.40;48.00;;;;;;4920704;28;20035;-76
2022/06/28 11:00:19;;;;;;;4.55;1.60;;;40.50;49.20;;;;;;4921699;29;20023;-75
2022/06/28 11:02:56;;;;;;;3.78;2.05;;;38.90;51.50;;;;;;4912865;29;20035;-76
2022/06/28 11:05:51;;;;;;;2.45;1.42;;;35.60;54.90;;;;;;4921187;29;20028;-76
2022/06/28 11:08:58;;;;;;;3.53;1.70;;;35.70;56.00;;;;;;4909633;29;20020;-76
2022/06/28 11:11:28;;;;;;;;;;;35.00;56.70;;;;;;4900657;29;20394;-75
2022/06/28 11:14:29;;;;;;;4.05;2.13;;;35.10;57.80;;;;;;4904337;29;19993;-76
2022/06/28 11:16:56;;;;;;;2.13;1.85;;;34.90;57.20;;;;;;4866467;29;20037;-75
2022/06/28 11:19:23;;;;;;;2.22;1.70;;;35.00;57.70;;;;;;4867937;29;20409;-76
2022/06/28 11:21:56;;;;;;;2.85;2.05;;;34.90;58.80;;;;;;4910078;29;20483;-76
2022/06/28 11:24:23;;;;;;;2.10;1.90;;;34.60;59.00;;;;;;4902241;29;20039;-75
2022/06/28 11:29:36;;;;;;;2.03;1.70;;;33.90;59.60;;;;;;4907955;29;20043;-75
2022/06/28 11:32:19;;;;;;;2.58;1.75;;;32.20;61.20;;;;;;4908783;29;20049;-75
2022/06/28 11:34:56;;;;;;;6.53;1.92;;;31.80;63.90;;;;;;4909092;29;20397;-75
2022/06/28 11:37:22;;;;;;;3.10;1.88;;;32.30;63.40;;;;;;4921605;29;20099;-75
2022/06/28 11:40:00;;;;;;;1.90;1.80;;;32.70;62.80;;;;;;4922597;29;20032;-75
2022/06/28 11:42:27;;;;;;;2.42;1.58;;;32.70;62.20;;;;;;4903712;29;20627;-76
2022/06/28 11:44:55;;;;;;;2.35;1.58;;;32.50;62.50;;;;;;4908610;29;20056;-75
2022/06/28 11:47:24;;;;;;;2.58;1.80;;;32.90;62.20;;;;;;4903386;29;20050;-75
2022/06/28 11:50:09;;;;;;;3.78;1.83;;;33.00;61.50;;;;;;4910867;29;20024;-75
2022/06/28 11:52:54;;;;;;;2.15;1.83;;;33.20;61.70;;;;;;4922180;29;20351;-76
2022/06/28 11:55:37;;;;;;;3.22;1.75;;;33.20;61.40;;;;;;4902011;29;20028;-76
2022/06/28 11:58:33;;;;;;;4.10;2.00;;;32.30;62.90;;;;;;4909211;29;20062;-75
2022/06/28 12:01:08;;;;;;;3.25;1.60;;;32.60;64.30;;;;;;4902547;29;20743;-75
2022/06/28 12:03:50;;;;;;;2.60;1.80;;;32.80;63.30;;;;;;4903550;29;20019;-75
2022/06/28 12:06:28;;;;;;;3.40;1.83;;;33.00;63.50;;;;;;4906914;29;20044;-75
2022/06/28 12:09:06;;;;;;;3.40;1.52;;;33.00;63.50;;;;;;4913142;29;20023;-75
2022/06/28 12:11:52;;;;;;;2.53;1.73;;;32.70;62.70;;;;;;4920210;29;20074;-74
2022/06/28 12:14:31;;;;;;;3.20;1.50;;;32.70;62.40;;;;;;4908771;29;20028;-74
2022/06/28 12:17:00;;;;;;;5.75;1.55;;;32.90;62.10;;;;;;4925945;29;20036;-76
2022/06/28 12:19:38;;;;;;;2.05;1.60;;;32.90;63.30;;;;;;4909335;29;20059;-75
2022/06/28 12:22:19;;;;;;;2.20;1.23;;;32.80;63.20;;;;;;4916722;29;20501;-75
2022/06/28 12:24:56;;;;;;;2.28;1.50;;;32.70;61.90;;;;;;4905148;29;20063;-74
2022/06/28 12:27:23;;;;;;;2.97;1.48;;;32.70;62.90;;;;;;4917764;29;20516;-71
2022/06/28 12:29:50;;;;;;;4.22;1.70;;;32.50;62.10;;;;;;4910145;29;20038;-71
2022/06/28 12:32:16;;;;;;;3.97;2.00;;;32.70;61.30;;;;;;4909852;29;20026;-71
2022/06/28 12:34:42;;;;;;;2.72;1.63;;;32.30;62.50;;;;;;4913162;29;20021;-71
2022/06/28 12:37:09;;;;;;;2.97;1.40;;;32.10;63.00;;;;;;4903777;29;20028;-71
2022/06/28 12:39:36;;;;;;;4.65;1.40;;;32.30;63.00;;;;;;4912830;29;20027;-71
2022/06/28 12:42:03;;;;;;;1.48;1.30;;;32.40;61.70;;;;;;4914757;29;20078;-71
2022/06/28 12:44:30;;;;;;;2.55;1.30;;;32.40;61.80;;;;;;4906734;29;20488;-72
2022/06/28 12:46:57;;;;;;;2.70;1.25;;;32.50;62.00;;;;;;4911602;29;20056;-71
2022/06/28 12:49:23;;;;;;;1.98;1.33;;;32.40;62.30;;;;;;4905826;29;20128;-71
2022/06/28 12:51:51;;;;;;;7.18;1.45;;;32.30;62.80;;;;;;4912394;29;20036;-71
2022/06/28 12:54:17;;;;;;;3.38;1.50;;;32.30;62.50;;;;;;4914487;29;20078;-72
2022/06/28 12:56:44;;;;;;;4.97;1.75;;;31.40;63.40;;;;;;4907185;29;20075;-72
2022/06/28 12:59:09;;;;;;;1.65;1.25;;;31.30;63.00;;;;;;4910519;29;20028;-71
2022/06/28 13:01:35;;;;;;;2.85;1.58;;;30.60;63.80;;;;;;4909009;29;20381;-71
2022/06/28 13:04:02;;;;;;;3.30;1.48;;;30.30;64.70;;;;;;4910021;29;20020;-71
2022/06/28 13:06:29;;;;;;;2.05;1.17;;;30.10;64.40;;;;;;4910361;29;20739;-73
2022/06/28 13:08:55;;;;;;;1.73;1.23;;;29.80;65.20;;;;;;4908624;29;20066;-71
2022/06/28 13:11:22;;;;;;;2.20;1.58;;;29.80;64.80;;;;;;4908380;29;20053;-71
2022/06/28 13:13:49;;;;;;;1.83;1.27;;;29.80;65.20;;;;;;4907136;29;20052;-71
2022/06/28 13:16:16;;;;;;;5.20;1.30;;;30.30;65.00;;;;;;4909618;29;20025;-70
2022/06/28 13:18:42;;;;;;;3.83;1.40;;;30.40;63.30;;;;;;4905812;29;20031;-71
2022/06/28 13:21:08;;;;;;;4.90;1.40;;;30.60;64.00;;;;;;4908962;29;20087;-71
2022/06/28 13:23:34;;;;;;;2.38;1.40;;;30.60;65.10;;;;;;4906870;29;20029;-73
2022/06/28 13:26:00;;;;;;;3.42;1.30;;;30.20;64.20;;;;;;4913634;29;20044;-73
2022/06/28 13:28:26;;;;;;;3.22;1.77;;;30.40;64.10;;;;;;4921267;29;20377;-73
2022/06/28 13:30:51;;;;;;;2.28;1.50;;;30.20;64.10;;;;;;4912122;29;20040;-73
2022/06/28 13:33:17;;;;;;;2.30;1.60;;;29.80;65.50;;;;;;4908850;29;20172;-73
2022/06/28 13:35:43;;;;;;;4.32;2.03;;;29.90;65.20;;;;;;4906491;29;20905;-73
2022/06/28 13:38:13;;;;;;;3.50;1.45;;;29.90;63.90;;;;;;4908269;29;20055;-73
2022/06/28 13:40:39;;;;;;;4.03;1.67;;;30.00;64.80;;;;;;4922426;29;20063;-73
2022/06/28 13:43:32;;;;;;;3.28;1.50;;;30.10;65.70;;;;;;4907304;29;20492;-70
2022/06/28 13:45:52;;;;;;;2.05;1.27;;;30.60;65.00;;;;;;4909887;29;20478;-73
2022/06/28 13:48:18;;;;;;;3.28;1.27;;;30.30;65.10;;;;;;4904190;29;20031;-73
2022/06/28 13:50:44;;;;;;;3.88;1.58;;;30.30;65.00;;;;;;4906539;29;20024;-70
2022/06/28 13:53:12;;;;;;;1.63;1.35;;;30.40;64.40;;;;;;4917186;29;20040;-71
2022/06/28 13:55:38;;;;;;;4.60;1.92;;;30.60;63.80;;;;;;4925598;29;20027;-71
2022/06/28 13:58:04;;;;;;;2.45;1.33;;;30.70;63.60;;;;;;4908958;29;20033;-70
2022/06/28 14:00:31;;;;;;;3.05;1.30;;;30.60;64.60;;;;;;4906747;29;20024;-70
2022/06/28 14:02:57;;;;;;;5.00;1.95;;;30.30;64.30;;;;;;4908855;29;20031;-70
2022/06/28 14:05:23;;;;;;;4.35;1.60;;;30.40;65.00;;;;;;4911117;29;20024;-71
2022/06/28 14:07:49;;;;;;;2.60;1.70;;;30.50;63.40;;;;;;4911794;29;20024;-71
2022/06/28 14:10:15;;;;;;;14.00;3.63;;;30.50;63.60;;;;;;4907173;29;20020;-72